createdAt,value
2018-04-28T00:01:22.369Z,97987.11
2018-04-28T00:03:34.337Z,97990.18
2018-04-28T00:05:45.445Z,97985.76
2018-04-28T00:07:56.547Z,97991.99
2018-04-28T00:10:07.634Z,97995.77
2018-04-28T00:12:18.737Z,97997.88
2018-04-28T00:14:29.846Z,97995.33
2018-04-28T00:16:48.882Z,97992.53
2018-04-28T00:19:03.990Z,97994.33
2018-04-28T00:21:15.051Z,97999.67
2018-04-28T00:23:26.258Z,98002.47
2018-04-28T00:25:39.922Z,97997.47
2018-04-28T00:28:02.042Z,97992.57
2018-04-28T00:30:13.178Z,97987.48
2018-04-28T00:32:24.310Z,97979.31
2018-04-28T00:37:14.955Z,97985.86
2018-04-28T00:39:26.148Z,97982.97
2018-04-28T00:41:37.187Z,97986.39
2018-04-28T00:43:48.365Z,97988.56
2018-04-28T00:46:02.057Z,97987.73
2018-04-28T00:48:24.122Z,97992.56
2018-04-28T00:50:46.035Z,97994.98
2018-04-28T00:52:57.086Z,97995.07
2018-04-28T00:55:14.145Z,97994.16
2018-04-28T01:00:22.345Z,97987.84
2018-04-28T01:02:33.422Z,97995.94
2018-04-28T01:04:45.469Z,97993.88
2018-04-28T01:06:56.561Z,97989.16
2018-04-28T01:09:07.616Z,97987.92
2018-04-28T01:11:18.746Z,97997.49
2018-04-28T01:13:39.869Z,97998.73
2018-04-28T01:15:50.975Z,97997.56
2018-04-28T01:18:07.142Z,97996.91
2018-04-28T01:20:18.229Z,98000.83
2018-04-28T01:22:33.127Z,98009.06
2018-04-28T01:24:47.151Z,98004.66
2018-04-28T01:30:04.583Z,97999.69
2018-04-28T01:32:24.571Z,97999.05
2018-04-28T01:34:51.325Z,98001.31
2018-04-28T01:37:12.174Z,98008.61
2018-04-28T01:39:27.025Z,98008.41
2018-04-28T01:41:55.993Z,98004.76
2018-04-28T01:44:10.846Z,98004.76
2018-04-28T01:46:24.718Z,98012.98
2018-04-28T01:48:53.372Z,98009.06
2018-04-28T01:51:12.277Z,98007.75
2018-04-28T01:53:24.165Z,98009.55
2018-04-28T01:55:35.238Z,98011.52
2018-04-28T01:58:02.984Z,98013.73
2018-04-28T02:00:14.185Z,98017.92
2018-04-28T02:02:26.087Z,98017.06
2018-04-28T02:04:37.161Z,98023.19
2018-04-28T02:06:55.473Z,98024.33
2018-04-28T02:09:21.530Z,98029.66
2018-04-28T02:11:42.602Z,98035.61
2018-04-28T02:16:37.302Z,98031.95
2018-04-28T02:19:00.734Z,98036.41
2018-04-28T02:24:07.339Z,98043.52
2018-04-28T02:26:18.452Z,98050.16
2018-04-28T02:28:36.342Z,98052.02
2018-04-28T02:30:48.385Z,98046.83
2018-04-28T02:33:01.345Z,98042.42
2018-04-28T02:35:13.337Z,98043.73
2018-04-28T02:37:39.603Z,98050.40
2018-04-28T02:39:56.691Z,98045.13
2018-04-28T02:42:07.767Z,98053.98
2018-04-28T02:44:20.647Z,98054.11
2018-04-28T02:46:46.624Z,98056.23
2018-04-28T02:49:02.775Z,98055.77
2018-04-28T02:53:56.300Z,98056.39
2018-04-28T02:56:23.169Z,98055.56
2018-04-28T02:58:35.138Z,98056.82
2018-04-28T03:01:01.580Z,98058.59
2018-04-28T03:03:24.750Z,98063.82
2018-04-28T03:05:37.858Z,98063.09
2018-04-28T03:10:54.922Z,98064.64
2018-04-28T03:13:13.811Z,98068.17
2018-04-28T03:15:24.942Z,98073.81
2018-04-28T03:17:37.050Z,98068.34
2018-04-28T03:19:49.145Z,98068.25
2018-04-28T03:22:00.230Z,98067.77
2018-04-28T03:27:13.759Z,98071.20
2018-04-28T03:29:28.661Z,98072.32
2018-04-28T03:31:39.730Z,98073.21
2018-04-28T03:36:41.616Z,98082.09
2018-04-28T03:39:03.582Z,98077.35
2018-04-28T03:41:24.091Z,98071.98
2018-04-28T03:46:23.028Z,98083.97
2018-04-28T03:48:35.746Z,98087.22
2018-04-28T03:50:47.713Z,98091.13
2018-04-28T03:53:03.579Z,98091.55
2018-04-28T03:55:14.650Z,98091.58
2018-04-28T03:57:37.958Z,98092.06
2018-04-28T04:00:01.334Z,98088.94
2018-04-28T04:02:24.703Z,98093.62
2018-04-28T04:04:36.707Z,98096.36
2018-04-28T04:07:06.529Z,98088.75
2018-04-28T04:09:22.470Z,98095.56
2018-04-28T04:14:45.334Z,98104.85
2018-04-28T04:17:30.998Z,98105.84
2018-04-28T04:20:04.243Z,98105.42
2018-04-28T04:22:24.363Z,98102.56
2018-04-28T04:24:46.902Z,98103.64
2018-04-28T04:27:05.933Z,98116.41
2018-04-28T04:32:22.159Z,98115.55
2018-04-28T04:37:11.186Z,98118.25
2018-04-28T04:39:24.102Z,98128.27
2018-04-28T04:41:45.399Z,98125.77
2018-04-28T04:44:02.351Z,98133.52
2018-04-28T04:49:19.853Z,98141.72
2018-04-28T04:54:11.352Z,98145.52
2018-04-28T04:56:40.192Z,98143.31
2018-04-28T04:59:01.333Z,98163.03
2018-04-28T05:01:21.494Z,98160.29
2018-04-28T05:06:51.875Z,98153.81
2018-04-28T05:09:23.761Z,98161.93
2018-04-28T05:14:33.523Z,98164.13
2018-04-28T05:17:10.420Z,98165.00
2018-04-28T05:19:33.653Z,98170.46
2018-04-28T05:24:31.140Z,98194.52
2018-04-28T05:26:55.099Z,98192.91
2018-04-28T05:32:11.339Z,98206.12
2018-04-28T05:34:34.102Z,98217.17
2018-04-28T05:39:59.467Z,98203.56
2018-04-28T05:45:01.964Z,98200.57
2018-04-28T05:50:08.874Z,98212.28
2018-04-28T05:52:25.902Z,98216.09
2018-04-28T05:57:43.481Z,98205.06
2018-04-28T06:00:04.494Z,98205.95
2018-04-28T06:02:21.662Z,98209.81
2018-04-28T06:04:41.503Z,98210.95
2018-04-28T06:07:04.861Z,98207.69
2018-04-28T06:09:19.560Z,98200.59
2018-04-28T06:11:43.576Z,98199.66
2018-04-28T06:14:06.753Z,98204.52
2018-04-28T06:16:38.539Z,98215.13
2018-04-28T06:21:38.409Z,98233.91
2018-04-28T06:23:49.512Z,98234.22
2018-04-28T06:26:00.636Z,98244.30
2018-04-28T06:28:11.654Z,98244.67
2018-04-28T06:30:22.696Z,98239.55
2018-04-28T06:32:33.760Z,98234.10
2018-04-28T06:34:44.858Z,98229.73
2018-04-28T06:36:57.837Z,98232.62
2018-04-28T06:39:08.921Z,98238.23
2018-04-28T06:41:20.029Z,98235.85
2018-04-28T06:43:31.196Z,98234.64
2018-04-28T06:45:42.254Z,98226.27
2018-04-28T06:47:53.290Z,98237.16
2018-04-28T06:50:04.367Z,98238.11
2018-04-28T06:52:15.457Z,98229.86
2018-04-28T06:54:26.541Z,98235.00
2018-04-28T06:56:37.706Z,98236.14
2018-04-28T06:58:49.041Z,98227.42
2018-04-28T07:01:00.113Z,98239.63
2018-04-28T07:03:11.332Z,98251.66
2018-04-28T07:05:22.401Z,98260.11
2018-04-28T07:07:33.463Z,98268.20
2018-04-28T07:09:44.597Z,98260.69
2018-04-28T07:11:55.699Z,98262.69
2018-04-28T07:14:06.862Z,98250.56
2018-04-28T07:16:17.949Z,98248.32
2018-04-28T07:18:29.116Z,98244.13
2018-04-28T07:20:40.216Z,98252.76
2018-04-28T07:22:51.310Z,98247.48
2018-04-28T07:25:02.388Z,98241.73
2018-04-28T07:27:13.454Z,98238.11
2018-04-28T07:29:24.540Z,98239.07
2018-04-28T07:31:35.679Z,98243.02
2018-04-28T07:33:46.825Z,98238.64
2018-04-28T07:35:57.921Z,98237.74
2018-04-28T07:38:09.169Z,98241.19
2018-04-28T07:40:20.293Z,98254.72
2018-04-28T07:42:31.461Z,98234.13
2018-04-28T07:44:42.530Z,98232.34
2018-04-28T07:46:53.653Z,98226.80
2018-04-28T07:49:04.731Z,98235.00
2018-04-28T07:51:15.798Z,98236.72
2018-04-28T07:53:27.013Z,98239.82
2018-04-28T07:55:38.085Z,98237.34
2018-04-28T07:57:49.210Z,98241.74
2018-04-28T08:00:00.337Z,98247.53
2018-04-28T08:02:11.466Z,98244.61
2018-04-28T08:04:22.593Z,98238.66
2018-04-28T08:06:33.734Z,98243.21
2018-04-28T08:08:44.876Z,98247.28
2018-04-28T08:10:55.961Z,98249.83
2018-04-28T08:13:07.037Z,98249.03
2018-04-28T08:15:18.210Z,98230.35
2018-04-28T08:17:29.275Z,98233.17
2018-04-28T08:19:41.293Z,98237.27
2018-04-28T08:21:52.371Z,98242.83
2018-04-28T08:24:03.594Z,98247.53
2018-04-28T08:26:14.653Z,98234.11
2018-04-28T08:28:25.741Z,98240.98
2018-04-28T08:30:37.047Z,98240.67
2018-04-28T08:32:48.501Z,98239.22
2018-04-28T08:34:59.704Z,98230.44
2018-04-28T08:37:10.890Z,98228.75
2018-04-28T08:39:21.922Z,98225.22
2018-04-28T08:41:33.014Z,98219.48
2018-04-28T08:43:44.176Z,98220.05
2018-04-28T08:45:55.422Z,98220.05
2018-04-28T08:48:06.488Z,98229.34
2018-04-28T08:50:17.602Z,98221.13
2018-04-28T08:52:28.706Z,98218.81
2018-04-28T08:54:39.902Z,98229.49
2018-04-28T08:56:51.040Z,98224.84
2018-04-28T08:59:02.134Z,98224.23
2018-04-28T09:01:13.217Z,98218.11
2018-04-28T09:03:25.573Z,98218.66
2018-04-28T09:05:36.706Z,98218.13
2018-04-28T09:07:47.971Z,98216.98
2018-04-28T09:09:59.182Z,98223.42
2018-04-28T09:12:10.291Z,98219.85
2018-04-28T09:14:21.487Z,98216.58
2018-04-28T09:16:32.593Z,98205.51
2018-04-28T09:18:43.774Z,98211.88
2018-04-28T09:20:54.946Z,98206.96
2018-04-28T09:23:06.145Z,98210.17
2018-04-28T09:25:17.336Z,98211.39
2018-04-28T09:27:28.594Z,98206.49
2018-04-28T09:29:39.709Z,98216.42
2018-04-28T09:31:50.810Z,98218.66
2018-04-28T09:34:01.958Z,98215.73
2018-04-28T09:36:13.030Z,98210.95
2018-04-28T09:38:24.145Z,98207.41
2018-04-28T09:40:35.234Z,98209.82
2018-04-28T09:42:46.402Z,98206.47
2018-04-28T09:44:57.533Z,98218.23
2018-04-28T09:47:08.610Z,98212.44
2018-04-28T09:49:19.886Z,98209.23
2018-04-28T09:51:30.982Z,98204.83
2018-04-28T09:53:42.081Z,98212.33
2018-04-28T09:55:53.173Z,98210.14
2018-04-28T09:58:06.275Z,98211.59
2018-04-28T10:00:29.868Z,98217.09
2018-04-28T10:02:41.001Z,98213.66
2018-04-28T10:04:52.083Z,98216.76
2018-04-28T10:07:03.176Z,98216.51
2018-04-28T10:09:14.239Z,98216.01
2018-04-28T10:11:25.365Z,98217.22
2018-04-28T10:13:36.466Z,98207.95
2018-04-28T10:15:47.700Z,98208.33
2018-04-28T10:17:58.819Z,98205.50
2018-04-28T10:20:09.998Z,98206.70
2018-04-28T10:22:21.069Z,98203.23
2018-04-28T10:24:32.141Z,98194.60
2018-04-28T10:26:43.278Z,98196.25
2018-04-28T10:28:54.354Z,98190.14
2018-04-28T10:31:05.434Z,98193.93
2018-04-28T10:33:16.582Z,98182.05
2018-04-28T10:35:27.655Z,98174.26
2018-04-28T10:37:38.720Z,98169.45
2018-04-28T10:39:49.860Z,98160.34
2018-04-28T10:42:00.945Z,98163.34
2018-04-28T10:44:12.103Z,98153.59
2018-04-28T10:46:23.154Z,98151.69
2018-04-28T10:48:34.263Z,98154.09
2018-04-28T10:50:45.421Z,98149.77
2018-04-28T10:52:56.485Z,98145.38
2018-04-28T10:55:07.658Z,98147.52
2018-04-28T10:57:18.769Z,98134.17
2018-04-28T10:59:30.010Z,98128.44
2018-04-28T11:01:41.129Z,98131.99
2018-04-28T11:03:52.222Z,98120.65
2018-04-28T11:06:03.362Z,98108.38
2018-04-28T11:08:14.449Z,98106.18
2018-04-28T11:10:25.623Z,98096.56
2018-04-28T11:12:36.746Z,98095.80
2018-04-28T11:14:47.928Z,98088.06
2018-04-28T11:16:59.051Z,98084.93
2018-04-28T11:19:10.183Z,98082.35
2018-04-28T11:21:21.321Z,98077.52
2018-04-28T11:23:32.425Z,98074.99
2018-04-28T11:25:43.579Z,98068.86
2018-04-28T11:27:54.590Z,98065.59
2018-04-28T11:30:05.770Z,98061.03
2018-04-28T11:32:16.916Z,98061.24
2018-04-28T11:34:28.018Z,98054.61
2018-04-28T11:36:39.114Z,98059.39
2018-04-28T11:38:50.333Z,98058.98
2018-04-28T11:41:01.426Z,98063.11
2018-04-28T11:43:12.567Z,98058.90
2018-04-28T11:45:23.646Z,98049.52
2018-04-28T11:47:34.734Z,98044.58
2018-04-28T11:49:45.842Z,98038.61
2018-04-28T11:51:56.999Z,98039.92
2018-04-28T11:54:08.232Z,98038.94
2018-04-28T11:56:19.325Z,98040.05
2018-04-28T11:58:30.438Z,98033.91
2018-04-28T12:00:41.534Z,98033.52
2018-04-28T12:02:52.600Z,98036.25
2018-04-28T12:05:03.763Z,98027.17
2018-04-28T12:07:14.777Z,98028.98
2018-04-28T12:09:25.999Z,98029.98
2018-04-28T12:11:37.106Z,98034.28
2018-04-28T12:13:48.393Z,98031.00
2018-04-28T12:15:59.489Z,98033.38
2018-04-28T12:18:10.641Z,98023.30
2018-04-28T12:20:21.752Z,98021.81
2018-04-28T12:22:32.838Z,98016.92
2018-04-28T12:24:44.291Z,98015.83
2018-04-28T12:26:55.386Z,98013.09
2018-04-28T12:29:06.469Z,98007.24
2018-04-28T12:31:17.569Z,98007.34
2018-04-28T12:33:28.735Z,98003.27
2018-04-28T12:35:40.819Z,98000.19
2018-04-28T12:37:51.942Z,97997.52
2018-04-28T12:40:03.016Z,97991.08
2018-04-28T12:42:14.111Z,97988.48
2018-04-28T12:44:25.222Z,97989.47
2018-04-28T12:46:36.397Z,97991.34
2018-04-28T12:48:47.504Z,97986.44
2018-04-28T12:50:58.637Z,97987.23
2018-04-28T12:53:09.748Z,97983.20
2018-04-28T12:55:20.845Z,97985.91
2018-04-28T12:57:32.011Z,97976.61
2018-04-28T12:59:43.036Z,97975.28
2018-04-28T13:01:54.281Z,97976.38
2018-04-28T13:04:05.357Z,97970.34
2018-04-28T13:06:16.634Z,97970.59
2018-04-28T13:08:27.778Z,97963.16
2018-04-28T13:10:38.973Z,97966.54
2018-04-28T13:12:50.036Z,97965.61
2018-04-28T13:15:01.156Z,97955.65
2018-04-28T13:17:12.251Z,97958.47
2018-04-28T13:19:23.333Z,97949.52
2018-04-28T13:21:34.525Z,97955.02
2018-04-28T13:23:45.597Z,97951.09
2018-04-28T13:25:56.782Z,97950.98
2018-04-28T13:28:07.950Z,97947.12
2018-04-28T13:30:19.126Z,97942.23
2018-04-28T13:32:30.321Z,97938.75
2018-04-28T13:34:41.370Z,97932.11
2018-04-28T13:36:52.454Z,97935.84
2018-04-28T13:39:03.554Z,97935.84
2018-04-28T13:41:14.613Z,97934.05
2018-04-28T13:43:25.689Z,97929.26
2018-04-28T13:45:36.877Z,97924.50
2018-04-28T13:47:48.161Z,97922.19
2018-04-28T13:49:59.254Z,97924.88
2018-04-28T13:52:10.377Z,97926.52
2018-04-28T13:54:21.560Z,97916.39
2018-04-28T13:56:32.634Z,97910.34
2018-04-28T13:58:43.756Z,97917.03
2018-04-28T14:00:54.900Z,97912.25
2018-04-28T14:03:05.935Z,97918.18
2018-04-28T14:05:17.185Z,97910.77
2018-04-28T14:07:28.417Z,97904.98
2018-04-28T14:09:39.599Z,97905.98
2018-04-28T14:11:50.725Z,97903.27
2018-04-28T14:14:01.773Z,97895.08
2018-04-28T14:16:12.870Z,97893.27
2018-04-28T14:18:23.927Z,97889.39
2018-04-28T14:20:35.842Z,97895.58
2018-04-28T14:22:47.002Z,97895.90
2018-04-28T14:24:58.095Z,97897.58
2018-04-28T14:27:09.189Z,97889.98
2018-04-28T14:29:20.274Z,97890.72
2018-04-28T14:31:31.412Z,97891.53
2018-04-28T14:33:42.526Z,97891.45
2018-04-28T14:35:53.619Z,97880.39
2018-04-28T14:38:04.758Z,97879.89
2018-04-28T14:40:15.861Z,97876.02
2018-04-28T14:42:38.990Z,97872.71
2018-04-28T14:44:50.086Z,97872.48
2018-04-28T14:47:01.178Z,97870.66
2018-04-28T14:49:12.250Z,97869.89
2018-04-28T14:51:23.315Z,97869.16
2018-04-28T14:53:34.422Z,97863.80
2018-04-28T14:55:45.485Z,97859.02
2018-04-28T14:57:56.684Z,97853.51
2018-04-28T15:00:07.760Z,97853.51
2018-04-28T15:02:18.910Z,97851.69
2018-04-28T15:04:29.997Z,97848.91
2018-04-28T15:06:41.119Z,97846.50
2018-04-28T15:08:52.247Z,97841.54
2018-04-28T15:11:03.301Z,97841.54
2018-04-28T15:13:14.448Z,97841.56
2018-04-28T15:15:25.547Z,97836.44
2018-04-28T15:17:36.794Z,97834.97
2018-04-28T15:19:47.913Z,97836.92
2018-04-28T15:21:59.098Z,97834.38
2018-04-28T15:24:10.274Z,97826.55
2018-04-28T15:26:21.364Z,97831.56
2018-04-28T15:28:32.536Z,97828.11
2018-04-28T15:30:43.562Z,97826.38
2018-04-28T15:32:54.640Z,97833.06
2018-04-28T15:35:05.715Z,97834.94
2018-04-28T15:37:16.854Z,97834.20
2018-04-28T15:39:27.970Z,97832.66
2018-04-28T15:41:39.073Z,97833.13
2018-04-28T15:43:50.197Z,97832.72
2018-04-28T15:46:01.281Z,97844.19
2018-04-28T15:48:12.419Z,97845.33
2018-04-28T15:50:23.541Z,97842.52
2018-04-28T15:52:34.666Z,97842.02
2018-04-28T15:54:45.763Z,97841.11
2018-04-28T15:56:57.017Z,97837.73
2018-04-28T15:59:08.092Z,97838.83
2018-04-28T16:01:19.216Z,97839.38
2018-04-28T16:03:30.310Z,97834.74
2018-04-28T16:05:41.459Z,97835.73
2018-04-28T16:07:52.546Z,97825.52
2018-04-28T16:10:03.625Z,97827.73
2018-04-28T16:12:14.741Z,97830.29
2018-04-28T16:14:25.829Z,97819.00
2018-04-28T16:16:36.972Z,97818.77
2018-04-28T16:18:48.051Z,97819.20
2018-04-28T16:20:59.133Z,97818.70
2018-04-28T16:23:10.247Z,97815.97
2018-04-28T16:25:21.382Z,97817.52
2018-04-28T16:27:32.523Z,97811.41
2018-04-28T16:29:43.577Z,97812.33
2018-04-28T16:31:54.777Z,97816.59
2018-04-28T16:34:05.957Z,97809.69
2018-04-28T16:36:17.059Z,97811.14
2018-04-28T16:38:28.157Z,97814.45
2018-04-28T16:40:39.409Z,97808.67
2018-04-28T16:42:50.510Z,97807.27
2018-04-28T16:45:01.565Z,97814.28
2018-04-28T16:47:12.718Z,97811.08
2018-04-28T16:49:23.777Z,97808.00
2018-04-28T16:51:34.905Z,97813.85
2018-04-28T16:53:46.031Z,97813.67
2018-04-28T16:55:57.197Z,97814.16
2018-04-28T16:58:08.301Z,97814.90
2018-04-28T17:00:19.476Z,97819.52
2018-04-28T17:02:30.533Z,97811.30
2018-04-28T17:04:41.676Z,97814.95
2018-04-28T17:06:52.774Z,97805.92
2018-04-28T17:09:03.882Z,97810.73
2018-04-28T17:11:15.118Z,97811.70
2018-04-28T17:13:26.229Z,97813.83
2018-04-28T17:15:37.325Z,97821.65
2018-04-28T17:17:52.486Z,97824.05
2018-04-28T17:20:03.650Z,97823.46
2018-04-28T17:22:14.742Z,97821.55
2018-04-28T17:24:25.789Z,97820.02
2018-04-28T17:26:36.875Z,97818.06
2018-04-28T17:28:47.989Z,97809.86
2018-04-28T17:30:59.269Z,97812.50
2018-04-28T17:33:10.325Z,97809.66
2018-04-28T17:35:21.522Z,97818.70
2018-04-28T17:37:32.621Z,97822.88
2018-04-28T17:39:43.766Z,97821.14
2018-04-28T17:41:54.886Z,97826.41
2018-04-28T17:44:05.962Z,97830.55
2018-04-28T17:46:17.018Z,97840.17
2018-04-28T17:48:28.105Z,97833.53
2018-04-28T17:50:39.233Z,97835.53
2018-04-28T17:52:50.325Z,97838.09
2018-04-28T17:55:02.525Z,97832.79
2018-04-28T17:57:13.625Z,97840.08
2018-04-28T17:59:24.730Z,97834.25
2018-04-28T18:01:35.822Z,97839.97
2018-04-28T18:03:47.010Z,97840.66
2018-04-28T18:05:58.149Z,97838.75
2018-04-28T18:08:09.319Z,97839.86
2018-04-28T18:10:20.445Z,97837.28
2018-04-28T18:12:31.704Z,97840.25
2018-04-28T18:14:42.896Z,97837.12
2018-04-28T18:16:53.939Z,97842.61
2018-04-28T18:19:05.082Z,97842.22
2018-04-28T18:21:16.150Z,97847.05
2018-04-28T18:23:27.229Z,97842.38
2018-04-28T18:25:38.334Z,97839.89
2018-04-28T18:27:49.431Z,97842.38
2018-04-28T18:30:00.526Z,97839.60
2018-04-28T18:32:11.620Z,97841.92
2018-04-28T18:34:22.698Z,97834.79
2018-04-28T18:36:33.801Z,97838.91
2018-04-28T18:38:44.914Z,97836.33
2018-04-28T18:40:56.084Z,97840.48
2018-04-28T18:43:07.163Z,97834.57
2018-04-28T18:45:18.269Z,97833.96
2018-04-28T18:47:29.401Z,97825.47
2018-04-28T18:49:40.493Z,97830.45
2018-04-28T18:51:51.585Z,97830.69
2018-04-28T18:54:02.700Z,97825.23
2018-04-28T18:56:13.789Z,97827.66
2018-04-28T18:58:24.874Z,97826.23
2018-04-28T19:00:36.058Z,97827.91
2018-04-28T19:02:47.234Z,97830.50
2018-04-28T19:04:58.314Z,97841.30
2018-04-28T19:07:10.002Z,97842.87
2018-04-28T19:09:21.090Z,97847.83
2018-04-28T19:11:32.280Z,97846.27
2018-04-28T19:13:43.345Z,97854.36
2018-04-28T19:15:54.476Z,97852.79
2018-04-28T19:18:05.594Z,97857.63
2018-04-28T19:20:16.698Z,97861.41
2018-04-28T19:22:27.869Z,97858.41
2018-04-28T19:24:39.005Z,97866.75
2018-04-28T19:26:50.257Z,97867.11
2018-04-28T19:29:01.485Z,97868.55
2018-04-28T19:31:12.607Z,97880.53
2018-04-28T19:33:23.752Z,97889.80
2018-04-28T19:35:34.841Z,97888.48
2018-04-28T19:37:46.129Z,97883.10
2018-04-28T19:39:57.194Z,97886.58
2018-04-28T19:42:08.310Z,97890.23
2018-04-28T19:44:19.454Z,97883.59
2018-04-28T19:46:30.559Z,97881.41
2018-04-28T19:48:41.744Z,97885.91
2018-04-28T19:50:52.839Z,97878.98
2018-04-28T19:53:03.990Z,97878.66
2018-04-28T19:55:15.140Z,97869.38
2018-04-28T19:57:26.249Z,97863.17
2018-04-28T19:59:37.481Z,97874.09
2018-04-28T20:01:48.609Z,97871.39
2018-04-28T20:03:59.800Z,97876.22
2018-04-28T20:06:10.890Z,97876.22
2018-04-28T20:08:21.986Z,97866.70
2018-04-28T20:10:33.197Z,97859.19
2018-04-28T20:12:44.287Z,97861.81
2018-04-28T20:14:55.382Z,97858.13
2018-04-28T20:17:06.456Z,97857.88
2018-04-28T20:19:17.585Z,97857.51
2018-04-28T20:21:28.670Z,97859.47
2018-04-28T20:23:51.829Z,97860.80
2018-04-28T20:26:03.020Z,97866.44
2018-04-28T20:28:14.109Z,97865.73
2018-04-28T20:30:25.210Z,97876.65
2018-04-28T20:32:36.318Z,97880.33
2018-04-28T20:34:47.431Z,97875.98
2018-04-28T20:36:58.557Z,97873.47
2018-04-28T20:39:09.734Z,97866.31
2018-04-28T20:41:20.834Z,97868.62
2018-04-28T20:43:31.917Z,97870.12
2018-04-28T20:45:43.013Z,97868.89
2018-04-28T20:47:54.104Z,97876.68
2018-04-28T20:50:05.180Z,97877.45
2018-04-28T20:52:16.405Z,97879.94
2018-04-28T20:54:27.574Z,97873.59
2018-04-28T20:56:38.841Z,97874.26
2018-04-28T20:58:50.018Z,97883.03
2018-04-28T21:01:01.105Z,97884.69
2018-04-28T21:03:12.266Z,97888.81
2018-04-28T21:05:23.350Z,97892.91
2018-04-28T21:07:34.429Z,97896.29
2018-04-28T21:09:45.521Z,97898.43
2018-04-28T21:11:56.599Z,97899.22
2018-04-28T21:14:07.774Z,97903.04
2018-04-28T21:16:18.856Z,97905.36
2018-04-28T21:18:29.979Z,97908.20
2018-04-28T21:20:41.063Z,97905.36
2018-04-28T21:22:52.310Z,97909.22
2018-04-28T21:25:03.420Z,97918.20
2018-04-28T21:27:14.524Z,97912.66
2018-04-28T21:29:25.671Z,97913.56
2018-04-28T21:31:36.754Z,97914.58
2018-04-28T21:33:47.913Z,97918.23
2018-04-28T21:35:58.996Z,97921.12
2018-04-28T21:38:10.195Z,97923.44
2018-04-28T21:40:21.275Z,97917.45
2018-04-28T21:42:32.398Z,97932.94
2018-04-28T21:44:43.491Z,97935.63
2018-04-28T21:46:54.624Z,97947.11
2018-04-28T21:49:05.719Z,97951.14
2018-04-28T21:51:16.764Z,97949.90
2018-04-28T21:53:27.946Z,97955.17
2018-04-28T21:55:39.092Z,97959.66
2018-04-28T21:57:50.329Z,97960.38
2018-04-28T22:00:01.474Z,97963.00
2018-04-28T22:02:12.611Z,97966.43
2018-04-28T22:04:23.689Z,97962.23
2018-04-28T22:06:34.833Z,97966.53
2018-04-28T22:08:45.925Z,97963.83
2018-04-28T22:10:56.997Z,97964.11
2018-04-28T22:13:08.199Z,97960.38
2018-04-28T22:15:19.443Z,97962.78
2018-04-28T22:17:30.457Z,97965.42
2018-04-28T22:19:41.537Z,97962.41
2018-04-28T22:21:52.684Z,97961.93
2018-04-28T22:24:03.755Z,97961.11
2018-04-28T22:26:14.848Z,97954.06
2018-04-28T22:28:25.922Z,97955.30
2018-04-28T22:30:36.985Z,97952.79
2018-04-28T22:32:48.113Z,97959.23
2018-04-28T22:34:59.293Z,97961.58
2018-04-28T22:37:10.569Z,97962.41
2018-04-28T22:39:21.626Z,97967.56
2018-04-28T22:41:32.783Z,97969.95
2018-04-28T22:43:43.848Z,97974.73
2018-04-28T22:45:54.938Z,97965.30
2018-04-28T22:48:06.093Z,97968.61
2018-04-28T22:50:17.160Z,97981.15
2018-04-28T22:52:28.290Z,97980.14
2018-04-28T22:54:39.397Z,97988.95
2018-04-28T22:56:50.508Z,97992.88
2018-04-28T22:59:01.574Z,97998.05
2018-04-28T23:01:12.622Z,97995.59
2018-04-28T23:03:23.730Z,98000.03
2018-04-28T23:05:34.841Z,98000.49
2018-04-28T23:07:46.050Z,98002.14
2018-04-28T23:09:57.153Z,98002.95
2018-04-28T23:12:08.409Z,98001.17
2018-04-28T23:14:19.510Z,97999.75
2018-04-28T23:16:30.628Z,98004.30
2018-04-28T23:18:41.734Z,98001.77
2018-04-28T23:20:52.820Z,98002.88
2018-04-28T23:23:03.885Z,98019.64
2018-04-28T23:25:14.959Z,98038.38
2018-04-28T23:27:26.057Z,98062.16
2018-04-28T23:29:37.190Z,98085.27
2018-04-28T23:31:48.354Z,98092.70
2018-04-28T23:33:59.441Z,98102.41
2018-04-28T23:36:10.682Z,98093.84
2018-04-28T23:38:21.734Z,98085.95
2018-04-28T23:40:32.797Z,98086.27
2018-04-28T23:42:43.859Z,98092.80
2018-04-28T23:44:54.957Z,98100.41
2018-04-28T23:47:06.113Z,98115.03
2018-04-28T23:49:17.218Z,98111.96
2018-04-28T23:51:28.425Z,98118.25
2018-04-28T23:53:39.526Z,98118.69
2018-04-28T23:55:50.743Z,98117.80
2018-04-28T23:58:01.794Z,98122.67
